• Join FlightAware (Why Join?)
  • Login
  • US Flag 
12:33AM EDT


 

Airport Tracker/Info


-or-


 

Live Flight TrackerFlight Track Log ✈ EZY4672 ✈ 24-Apr-2013 ✈ LIMC / MXP - EDDB / SXF

Flight Track Log - Related Links

Times and Time Zones

All times are in EDT time to prevent confusion due to time zone crossing. See the EZY4672 flight status page for this flight to view local times or setup timezone preferences in your user account.

Time Position Orientation Groundspeed Altitude Reporting Facility
EDT Latitude Longitude Course Direction KTS MPH feet Rate Location/Type
12:57AM 46.5657 9.3118 23° Northeast  Level Estimated
12:58AM 46.6375 9.3576 24° Northeast  Level Estimated
12:59AM 46.7092 9.4034 24° Northeast  Level Estimated
01:00AM 46.7818 9.4499 24° Northeast  Level Estimated
01:01AM 46.8543 9.4965 24° Northeast  Level Estimated
01:02AM 46.9268 9.5432 24° Northeast  Level Estimated
01:03AM 46.9992 9.5900 24° Northeast  Level Estimated
01:04AM 47.0717 9.6370 24° Northeast  Level Estimated
01:05AM 47.1441 9.6841 24° Northeast  Level Estimated
01:06AM 47.2165 9.7313 24° Northeast  Level Estimated
01:07AM 47.2889 9.7787 24° Northeast  Level Estimated
01:08AM 47.3613 9.8262 24° Northeast  Level Estimated
01:09AM 47.4337 9.8738 24° Northeast  Level Estimated
01:10AM 47.5060 9.9215 24° Northeast  Level Estimated
01:11AM 47.5783 9.9694 24° Northeast  Level Estimated
01:12AM 47.6506 10.0174 24° Northeast  Level Estimated
01:13AM 47.7229 10.0656 24° Northeast  Level Estimated
01:14AM 47.7952 10.1138 24° Northeast  Level Estimated
01:15AM 47.8674 10.1623 24° Northeast  Level Estimated
01:16AM 47.9396 10.2108 24° Northeast  Level Estimated
01:17AM 48.0118 10.2595 24° Northeast  Level Estimated
01:18AM 48.0840 10.3083 24° Northeast  Level Estimated
01:19AM 48.1561 10.3573 24° Northeast  Level Estimated
01:20AM 48.2282 10.4064 24° Northeast  Level Estimated
01:21AM 48.3004 10.4556 24° Northeast  Level Estimated
01:22AM 48.3724 10.5050 24° Northeast  Level Estimated
01:23AM 48.4445 10.5545 24° Northeast  Level Estimated
01:24AM 48.5166 10.6041 25° Northeast  Level Estimated
01:25AM 48.5886 10.6539 25° Northeast  Level Estimated
01:26AM 48.6606 10.7038 25° Northeast  Level Estimated
01:27AM 48.7326 10.7539 25° Northeast  Level Estimated
01:28AM 48.8045 10.8041 25° Northeast  Level Estimated
01:29AM 48.8765 10.8545 25° Northeast  Level Estimated
01:30AM 48.9484 10.9050 25° Northeast  Level Estimated
01:31AM 49.0203 10.9557 25° Northeast  Level Estimated
01:32AM 49.0922 11.0065 25° Northeast  Level Estimated
01:33AM 49.1640 11.0575 25° Northeast  Level Estimated
01:34AM 49.2358 11.1086 25° Northeast  Level Estimated
01:35AM 49.3077 11.1598 25° Northeast  Level Estimated
01:36AM 49.3794 11.2112 25° Northeast  Level Estimated
01:37AM 49.4512 11.2627 25° Northeast  Level Estimated
01:38AM 49.5229 11.3145 25° Northeast  Level Estimated
01:39AM 49.5946 11.3663 25° Northeast  Level Estimated
01:40AM 49.6663 11.4183 25° Northeast  Level Estimated
01:41AM 49.7380 11.4705 25° Northeast  Level Estimated
01:42AM 49.8096 11.5228 25° Northeast  Level Estimated
01:43AM 49.8813 11.5752 25° Northeast  Level Estimated
01:44AM 49.9529 11.6279 25° Northeast  Level Estimated
01:45AM 50.0244 11.6806 25° Northeast  Level Estimated
01:46AM 50.0960 11.7336 25° Northeast  Level Estimated
01:47AM 50.1675 11.7867 25° Northeast  Level Estimated
01:48AM 50.2390 11.8399 25° Northeast  Level Estimated
01:49AM 50.3105 11.8933 26° Northeast  Level Estimated
01:50AM 50.3819 11.9469 26° Northeast  Level Estimated
01:51AM 50.4534 12.0007 26° Northeast  Level Estimated
01:52AM 50.5248 12.0546 26° Northeast  Level Estimated
01:53AM 50.5961 12.1086 26° Northeast  Level Estimated
01:54AM 50.6741 12.1679 26° Northeast  Level Estimated
01:55AM 50.7521 12.2274 26° Northeast  Level Estimated
01:56AM 50.8300 12.2871 26° Northeast  Level Estimated
01:57AM 50.9079 12.3469 26° Northeast  Level Estimated
01:58AM 50.9858 12.4070 26° Northeast  Level Estimated
01:59AM 51.0636 12.4673 26° Northeast  Level Estimated
02:00AM 51.1414 12.5278 26° Northeast  Level Estimated
02:01AM 51.2192 12.5885 26° Northeast  Level Estimated
02:02AM 51.2969 12.6494 26° Northeast  Level Estimated
02:03AM 51.3746 12.7105 26° Northeast  Level Estimated
02:04AM 51.4523 12.7718 26° Northeast  Level Estimated
02:05AM 51.5300 12.8333 26° Northeast  Level Estimated
02:06AM 51.6076 12.8950 26° Northeast  Level Estimated
02:07AM 51.6852 12.9569 26° Northeast  Level Estimated
02:08AM 51.7627 13.0191 26° Northeast  Level Estimated
02:09AM 51.8402 13.0814 26° Northeast  Level Estimated
02:10AM 51.9177 13.1440 26° Northeast  Level Estimated
02:11AM 51.9952 13.2068 27° Northeast  Level Estimated
02:12AM 52.0726 13.2698 27° Northeast  Level Estimated
02:13AM 52.1499 13.3330 27° Northeast  Level Estimated
02:14AM 52.2273 13.3965 27° Northeast  Level Estimated
02:15AM 52.3046 13.4602 27° Northeast  Level Estimated
02:16AM 52.3800 13.5225 27° Northeast  Level Estimated
02:17AM 52.3800 13.5225 North  Level Estimated
02:18AM 52.3800 13.5225 North  Level Estimated
02:19AM 52.3800 13.5225 North  Level Estimated
02:20AM 52.3800 13.5225 North  Level Estimated
02:21AM 52.3800 13.5225 North  Level Estimated
02:22AM 52.3800 13.5225 North  Level Estimated
02:23AM 52.3800 13.5225 North  Level Estimated
02:24AM 52.3800 13.5225 North  Level Estimated
02:25AM 52.3800 13.5225 North  Level Estimated
02:26AM 52.3800 13.5225 North  Level Estimated